Nahariyya, Israel
Current Conditions -  °F | °C
As of 12:50 PM on Wednesday 22 Oct 2014 (Local Time) from LLHA Reporting Station
Clear Clear  
Wind Chill: 82°   Ceiling: Unl
Heat Index: 82°   Visibility: 6mi
Dew Point: 41°   Wind: 9mph
Humidity: 23%   Direction: 130°SE
Pressure: 29.97"   Gusts: NA
Location:  33.03°N, 35.1°E
Report Text: LLHA 220950Z 13008KT 080V180 CAVOK 28/05 Q1015
Loading
Personal Weather Stations






























Interactive Weather Map
Tropical Storm Tracking
New forecast layout! Learn more

10-Day Weather Forecast

Advertisements
Track Severe Weather on mobile